Comunidad Mantilla, Puerto Rico
Current Conditions -  °F | °C
As of 6:50 PM on Tuesday 27 Jan 2015 (Local Time) from TJBQ Reporting Station
Overcast Overcast  
Wind Chill: 75°   Ceiling: 6000
Heat Index: 75°   Visibility: 10mi
Dew Point: 72°   Wind: 0mph
Humidity: 89%   Direction: NA
Pressure: 30.01"   Gusts: NA
Location:  18.4951°N, 67.0273°W
Report Text: TJBQ 272250Z 00000KT 10SM BKN060 OVC075 24/22 A3001 RMK RWY08 ATIS C
Loading
Personal Weather Stations






























Interactive Weather Map New forecast layout! Learn more

10-Day Weather Forecast

Advertisements
Track Severe Weather on mobile